createdAt,value
2023-05-25T00:02:25.951Z,12.90
2023-05-25T00:04:54.271Z,12.90
2023-05-25T00:07:22.493Z,12.90
2023-05-25T00:09:50.863Z,13.00
2023-05-25T00:12:18.965Z,13.10
2023-05-25T00:14:47.118Z,13.00
2023-05-25T00:17:18.605Z,13.00
2023-05-25T00:19:47.149Z,13.00
2023-05-25T00:22:15.392Z,13.00
2023-05-25T00:24:43.556Z,13.10
2023-05-25T00:27:11.661Z,13.10
2023-05-25T00:29:39.689Z,13.20
2023-05-25T00:32:08.455Z,13.10
2023-05-25T00:34:38.632Z,13.00
2023-05-25T00:37:07.271Z,13.00
2023-05-25T00:39:35.298Z,13.00
2023-05-25T00:42:04.367Z,13.00
2023-05-25T00:44:32.354Z,12.90
2023-05-25T00:47:01.618Z,12.90
2023-05-25T00:49:32.136Z,12.90
2023-05-25T00:52:01.761Z,12.90
2023-05-25T00:54:30.229Z,12.90
2023-05-25T00:57:04.309Z,12.90
2023-05-25T00:59:40.955Z,13.00
2023-05-25T01:02:10.664Z,13.00
2023-05-25T01:04:41.946Z,13.10
2023-05-25T01:07:14.010Z,13.20
2023-05-25T01:09:45.760Z,13.10
2023-05-25T01:12:16.508Z,13.10
2023-05-25T01:14:46.852Z,13.10
2023-05-25T01:17:16.798Z,13.10
2023-05-25T01:19:49.713Z,13.10
2023-05-25T01:22:33.883Z,13.30
2023-05-25T01:25:07.933Z,13.20
2023-05-25T01:27:41.086Z,13.20
2023-05-25T01:30:13.762Z,13.10
2023-05-25T01:32:43.543Z,13.10
2023-05-25T01:35:12.213Z,13.00
2023-05-25T01:37:47.257Z,13.00
2023-05-25T01:40:15.890Z,13.00
2023-05-25T01:42:43.941Z,12.90
2023-05-25T01:45:13.777Z,12.90
2023-05-25T01:47:47.266Z,12.80
2023-05-25T01:50:23.637Z,12.80
2023-05-25T01:52:58.117Z,12.70
2023-05-25T01:55:28.691Z,12.80
2023-05-25T01:58:00.287Z,12.70
2023-05-25T02:00:32.223Z,12.70
2023-05-25T02:03:01.945Z,12.80
2023-05-25T02:05:30.148Z,12.80
2023-05-25T02:07:59.749Z,12.70
2023-05-25T02:10:27.808Z,12.70
2023-05-25T02:12:55.939Z,12.60
2023-05-25T02:15:24.336Z,12.60
2023-05-25T02:17:52.597Z,12.60
2023-05-25T02:20:20.697Z,12.60
2023-05-25T02:22:48.787Z,12.60
2023-05-25T02:25:18.494Z,12.50
2023-05-25T02:27:46.960Z,12.50
2023-05-25T02:30:15.695Z,12.50
2023-05-25T02:32:43.834Z,12.40
2023-05-25T02:35:11.834Z,12.30
2023-05-25T02:37:40.333Z,12.40
2023-05-25T02:40:10.939Z,12.30
2023-05-25T02:42:40.447Z,12.20
2023-05-25T02:45:11.865Z,12.20
2023-05-25T02:47:40.005Z,12.10
2023-05-25T02:50:08.771Z,12.10
2023-05-25T02:52:36.971Z,12.10
2023-05-25T02:55:06.163Z,12.20
2023-05-25T02:57:34.275Z,12.20
2023-05-25T03:00:06.996Z,12.10
2023-05-25T03:02:35.294Z,12.20
2023-05-25T03:05:04.676Z,12.10
2023-05-25T03:07:33.309Z,12.30
2023-05-25T03:10:01.342Z,12.20
2023-05-25T03:12:29.382Z,12.30
2023-05-25T03:14:57.816Z,12.20
2023-05-25T03:17:27.416Z,12.30
2023-05-25T03:19:55.741Z,12.30
2023-05-25T03:22:23.994Z,12.30
2023-05-25T03:24:52.043Z,12.40
2023-05-25T03:27:20.074Z,12.40
2023-05-25T03:29:50.156Z,12.30
2023-05-25T03:32:18.433Z,12.40
2023-05-25T03:34:47.982Z,12.40
2023-05-25T03:37:16.025Z,12.40
2023-05-25T03:39:44.015Z,12.50
2023-05-25T03:42:12.155Z,12.40
2023-05-25T03:44:41.207Z,12.30
2023-05-25T03:47:09.414Z,12.30
2023-05-25T03:49:37.662Z,12.50
2023-05-25T03:52:08.125Z,12.30
2023-05-25T03:54:36.600Z,12.30
2023-05-25T03:57:10.399Z,12.20
2023-05-25T03:59:38.325Z,12.10
2023-05-25T04:02:06.781Z,12.10
2023-05-25T04:04:35.163Z,12.10
2023-05-25T04:07:03.212Z,12.10
2023-05-25T04:09:32.680Z,12.20
2023-05-25T04:12:02.379Z,12.10
2023-05-25T04:14:30.715Z,12.10
2023-05-25T04:16:58.829Z,12.10
2023-05-25T04:19:26.860Z,12.10
2023-05-25T04:21:55.052Z,12.10
2023-05-25T04:24:23.186Z,12.10
2023-05-25T04:26:52.696Z,12.00
2023-05-25T04:29:20.868Z,12.00
2023-05-25T04:31:49.677Z,12.00
2023-05-25T04:34:18.105Z,12.00
2023-05-25T04:36:47.746Z,12.00
2023-05-25T04:39:15.977Z,12.10
2023-05-25T04:41:44.504Z,12.20
2023-05-25T04:44:14.706Z,12.30
2023-05-25T04:46:42.720Z,12.30
2023-05-25T04:49:11.011Z,12.40
2023-05-25T04:51:39.151Z,12.70
2023-05-25T04:54:07.774Z,12.60
2023-05-25T04:56:36.522Z,12.60
2023-05-25T04:59:05.178Z,12.70
2023-05-25T05:01:40.719Z,12.70
2023-05-25T05:04:09.355Z,12.80
2023-05-25T05:06:37.989Z,13.00
2023-05-25T05:09:06.177Z,13.10
2023-05-25T05:11:35.004Z,13.20
2023-05-25T05:14:03.107Z,13.30
2023-05-25T05:16:34.881Z,13.30
2023-05-25T05:19:04.723Z,13.40
2023-05-25T05:21:33.621Z,13.40
2023-05-25T05:24:01.799Z,13.60
2023-05-25T05:26:30.627Z,13.70
2023-05-25T05:28:59.586Z,13.80
2023-05-25T05:31:27.829Z,13.80
2023-05-25T05:33:55.965Z,13.90
2023-05-25T05:36:25.799Z,13.90
2023-05-25T05:38:53.881Z,14.20
2023-05-25T05:41:21.965Z,14.10
2023-05-25T05:43:50.506Z,14.20
2023-05-25T05:46:18.579Z,14.30
2023-05-25T05:48:46.796Z,14.30
2023-05-25T05:51:14.977Z,14.20
2023-05-25T05:53:44.491Z,14.30
2023-05-25T05:56:18.736Z,14.30
2023-05-25T05:58:49.745Z,14.50
2023-05-25T06:01:18.152Z,14.40
2023-05-25T06:03:47.544Z,14.40
2023-05-25T06:06:15.738Z,14.60
2023-05-25T06:08:46.309Z,14.30
2023-05-25T06:11:14.368Z,14.30
2023-05-25T06:13:42.939Z,14.40
2023-05-25T06:16:13.116Z,14.40
2023-05-25T06:18:41.288Z,14.50
2023-05-25T06:21:10.715Z,14.60
2023-05-25T06:23:39.342Z,14.70
2023-05-25T06:26:08.814Z,14.80
2023-05-25T06:28:37.994Z,14.90
2023-05-25T06:31:06.280Z,14.90
2023-05-25T06:33:34.756Z,15.20
2023-05-25T06:36:02.767Z,15.10
2023-05-25T06:38:30.808Z,15.30
2023-05-25T06:41:02.610Z,15.30
2023-05-25T06:43:32.482Z,15.20
2023-05-25T06:46:00.719Z,15.30
2023-05-25T06:48:28.894Z,15.10
2023-05-25T06:50:57.028Z,15.10
2023-05-25T06:53:25.055Z,15.00
2023-05-25T06:55:53.022Z,15.00
2023-05-25T06:58:21.028Z,14.90
2023-05-25T07:00:50.664Z,15.00
2023-05-25T07:03:18.726Z,15.00
2023-05-25T07:05:46.742Z,15.10
2023-05-25T07:08:14.904Z,15.20
2023-05-25T07:10:43.073Z,15.20
2023-05-25T07:13:11.643Z,15.10
2023-05-25T07:15:39.752Z,15.20
2023-05-25T07:18:12.625Z,15.20
2023-05-25T07:20:42.193Z,15.30
2023-05-25T07:23:11.121Z,15.30
2023-05-25T07:25:39.438Z,15.30
2023-05-25T07:28:07.865Z,15.30
2023-05-25T07:30:36.638Z,15.50
2023-05-25T07:33:04.977Z,15.50
2023-05-25T07:35:35.608Z,15.50
2023-05-25T07:38:05.553Z,15.50
2023-05-25T07:40:34.002Z,15.50
2023-05-25T07:43:02.477Z,15.50
2023-05-25T07:45:30.511Z,15.60
2023-05-25T07:47:58.810Z,15.50
2023-05-25T07:50:27.270Z,15.70
2023-05-25T07:52:58.581Z,15.60
2023-05-25T07:55:28.193Z,15.60
2023-05-25T07:57:56.307Z,15.70
2023-05-25T08:00:24.715Z,15.80
2023-05-25T08:02:52.926Z,16.00
2023-05-25T08:05:21.404Z,16.10
2023-05-25T08:07:49.565Z,16.30
2023-05-25T08:10:19.291Z,16.30
2023-05-25T08:12:51.228Z,16.30
2023-05-25T08:15:20.581Z,16.50
2023-05-25T08:17:51.017Z,16.60
2023-05-25T08:20:19.590Z,16.80
2023-05-25T08:22:47.694Z,16.90
2023-05-25T08:25:15.890Z,16.90
2023-05-25T08:27:45.239Z,16.80
2023-05-25T08:30:13.813Z,16.90
2023-05-25T08:32:42.009Z,16.80
2023-05-25T08:35:11.101Z,16.80
2023-05-25T08:37:40.118Z,16.70
2023-05-25T08:40:10.805Z,16.60
2023-05-25T08:42:38.963Z,16.50
2023-05-25T08:45:22.601Z,16.60
2023-05-25T08:48:01.306Z,16.70
2023-05-25T08:50:32.156Z,16.70
2023-05-25T08:53:03.844Z,16.80
2023-05-25T08:55:36.441Z,16.70
2023-05-25T08:58:10.710Z,16.80
2023-05-25T09:00:46.148Z,16.60
2023-05-25T09:03:18.086Z,16.60
2023-05-25T09:05:47.271Z,16.60
2023-05-25T09:08:15.758Z,16.70
2023-05-25T09:10:47.685Z,16.70
2023-05-25T09:15:49.133Z,16.40
2023-05-25T09:18:17.396Z,16.60
2023-05-25T09:20:47.273Z,16.60
2023-05-25T09:23:16.361Z,16.40
2023-05-25T09:25:45.641Z,16.40
2023-05-25T09:28:26.292Z,16.40
2023-05-25T09:30:57.809Z,16.30
2023-05-25T09:33:26.012Z,16.40
2023-05-25T09:35:54.154Z,16.40
2023-05-25T09:38:22.618Z,16.50
2023-05-25T09:40:52.331Z,16.60
2023-05-25T09:43:36.323Z,16.70
2023-05-25T09:46:10.543Z,17.00
2023-05-25T09:48:39.405Z,17.00
2023-05-25T09:51:08.839Z,17.00
2023-05-25T09:53:37.756Z,17.20
2023-05-25T09:56:07.304Z,17.30
2023-05-25T09:58:35.357Z,17.40
2023-05-25T10:01:04.659Z,17.70
2023-05-25T10:03:34.294Z,17.70
2023-05-25T10:06:03.936Z,17.70
2023-05-25T10:08:33.915Z,17.80
2023-05-25T10:11:02.662Z,17.70
2023-05-25T10:13:32.160Z,17.70
2023-05-25T10:16:01.599Z,17.50
2023-05-25T10:18:33.809Z,17.40
2023-05-25T10:21:05.725Z,17.40
2023-05-25T10:23:41.458Z,17.60
2023-05-25T10:26:10.082Z,17.80
2023-05-25T10:28:39.499Z,17.80
2023-05-25T10:31:10.139Z,17.80
2023-05-25T10:33:38.755Z,17.80
2023-05-25T10:36:11.477Z,17.80
2023-05-25T10:38:42.076Z,18.10
2023-05-25T10:41:11.428Z,18.10
2023-05-25T10:43:40.794Z,18.10
2023-05-25T10:46:09.684Z,18.10
2023-05-25T10:48:38.979Z,17.90
2023-05-25T10:51:11.157Z,17.90
2023-05-25T10:53:40.148Z,17.80
2023-05-25T10:56:12.257Z,17.90
2023-05-25T10:58:44.654Z,17.90
2023-05-25T11:01:14.535Z,18.00
2023-05-25T11:03:56.529Z,17.90
2023-05-25T11:07:06.198Z,17.90
2023-05-25T11:09:38.765Z,17.80
2023-05-25T11:12:07.120Z,17.70
2023-05-25T11:14:38.304Z,17.60
2023-05-25T11:17:10.570Z,17.70
2023-05-25T11:19:50.754Z,17.80
2023-05-25T11:22:21.229Z,17.90
2023-05-25T11:24:51.774Z,17.90
2023-05-25T11:27:24.770Z,18.00
2023-05-25T11:29:54.009Z,18.00
2023-05-25T11:32:23.061Z,18.10
2023-05-25T11:34:54.146Z,18.10
2023-05-25T11:37:24.934Z,18.10
2023-05-25T11:39:55.089Z,18.20
2023-05-25T11:42:24.833Z,18.20
2023-05-25T11:44:54.493Z,18.10
2023-05-25T11:47:25.258Z,18.10
2023-05-25T11:49:56.678Z,18.10
2023-05-25T11:52:24.968Z,18.00
2023-05-25T11:54:54.555Z,18.30
2023-05-25T11:57:25.224Z,18.00
2023-05-25T11:59:55.213Z,18.00
2023-05-25T12:02:24.327Z,17.90
2023-05-25T12:04:56.339Z,18.10
2023-05-25T12:07:25.248Z,18.20
2023-05-25T12:10:07.076Z,18.30
2023-05-25T12:12:44.665Z,18.40
2023-05-25T12:15:14.821Z,18.20
2023-05-25T12:17:44.482Z,18.20
2023-05-25T12:20:15.471Z,18.20
2023-05-25T12:22:45.029Z,18.20
2023-05-25T12:25:16.850Z,18.20
2023-05-25T12:27:44.888Z,18.10
2023-05-25T12:30:13.223Z,18.00
2023-05-25T12:32:55.529Z,18.10
2023-05-25T12:35:23.827Z,18.10
2023-05-25T12:37:52.455Z,18.10
2023-05-25T12:40:24.920Z,18.00
2023-05-25T12:42:59.024Z,18.10
2023-05-25T12:45:27.915Z,18.20
2023-05-25T12:47:56.408Z,18.30
2023-05-25T12:50:24.666Z,18.30
2023-05-25T12:52:52.773Z,18.50
2023-05-25T12:55:25.863Z,18.60
2023-05-25T12:57:54.609Z,18.70
2023-05-25T13:00:23.839Z,18.70
2023-05-25T13:02:52.658Z,18.80
2023-05-25T13:05:22.543Z,18.90
2023-05-25T13:07:51.008Z,18.90
2023-05-25T13:10:19.906Z,19.20
2023-05-25T13:12:51.214Z,19.10
2023-05-25T13:15:21.967Z,19.20
2023-05-25T13:17:51.605Z,19.40
2023-05-25T13:20:21.230Z,19.30
2023-05-25T13:22:51.087Z,19.00
2023-05-25T13:25:21.993Z,18.90
2023-05-25T13:27:52.851Z,19.00
2023-05-25T13:30:22.094Z,19.00
2023-05-25T13:32:51.870Z,19.10
2023-05-25T13:35:34.186Z,18.90
2023-05-25T13:38:02.314Z,18.90
2023-05-25T13:40:30.414Z,18.80
2023-05-25T13:43:00.173Z,18.90
2023-05-25T13:45:28.326Z,18.70
2023-05-25T13:47:56.517Z,18.60
2023-05-25T13:50:24.822Z,18.70
2023-05-25T13:52:53.184Z,19.00
2023-05-25T13:55:21.194Z,19.20
2023-05-25T13:57:49.317Z,19.40
2023-05-25T14:00:19.633Z,19.30
2023-05-25T14:02:47.960Z,19.20
2023-05-25T14:05:16.126Z,19.10
2023-05-25T14:07:44.776Z,19.00
2023-05-25T14:10:13.096Z,18.80
2023-05-25T14:12:41.862Z,18.60
2023-05-25T14:15:10.841Z,18.50
2023-05-25T14:17:41.540Z,18.40
2023-05-25T14:20:16.359Z,18.30
2023-05-25T14:22:44.513Z,18.30
2023-05-25T14:25:12.758Z,18.30
2023-05-25T14:27:40.680Z,18.30
2023-05-25T14:30:09.912Z,18.30
2023-05-25T14:32:38.001Z,18.50
2023-05-25T14:35:08.882Z,18.80
2023-05-25T14:37:36.903Z,18.90
2023-05-25T14:40:05.646Z,18.80
2023-05-25T14:42:34.021Z,18.80
2023-05-25T14:45:02.036Z,18.60
2023-05-25T14:47:30.027Z,18.50
2023-05-25T14:49:58.043Z,18.60
2023-05-25T14:52:27.739Z,18.70
2023-05-25T14:54:55.811Z,19.00
2023-05-25T14:57:24.027Z,18.90
2023-05-25T14:59:52.486Z,18.80
2023-05-25T15:02:20.691Z,18.80
2023-05-25T15:04:48.809Z,19.00
2023-05-25T15:07:17.327Z,19.10
2023-05-25T15:09:47.102Z,19.30
2023-05-25T15:12:15.321Z,19.30
2023-05-25T15:14:43.748Z,19.50
2023-05-25T15:17:11.870Z,19.30
2023-05-25T15:19:40.037Z,19.50
2023-05-25T15:22:08.113Z,19.60
2023-05-25T15:24:36.417Z,19.70
2023-05-25T15:27:06.745Z,19.90
2023-05-25T15:29:34.973Z,19.80
2023-05-25T15:32:03.225Z,20.00
2023-05-25T15:34:31.450Z,20.00
2023-05-25T15:37:00.423Z,19.80
2023-05-25T15:39:28.528Z,20.10
2023-05-25T15:41:56.836Z,20.30
2023-05-25T15:44:26.423Z,20.10
2023-05-25T15:46:54.954Z,20.30
2023-05-25T15:49:23.101Z,20.40
2023-05-25T15:51:53.506Z,20.20
2023-05-25T15:54:21.690Z,20.10
2023-05-25T15:56:54.836Z,19.90
2023-05-25T15:59:23.047Z,20.00
2023-05-25T16:01:52.701Z,19.80
2023-05-25T16:04:21.368Z,20.00
2023-05-25T16:06:49.658Z,19.80
2023-05-25T16:09:18.130Z,19.80
2023-05-25T16:11:46.253Z,19.80
2023-05-25T16:14:14.477Z,19.80
2023-05-25T16:16:42.672Z,19.60
2023-05-25T16:19:13.959Z,19.70
2023-05-25T16:21:42.574Z,19.70
2023-05-25T16:24:11.091Z,19.80
2023-05-25T16:26:39.332Z,19.60
2023-05-25T16:29:07.302Z,19.50
2023-05-25T16:31:35.706Z,19.50
2023-05-25T16:34:04.233Z,19.20
2023-05-25T16:36:33.973Z,19.40
2023-05-25T16:39:05.589Z,19.30
2023-05-25T16:41:33.924Z,19.40
2023-05-25T16:44:02.431Z,19.40
2023-05-25T16:46:30.548Z,19.50
2023-05-25T16:48:58.637Z,19.00
2023-05-25T16:51:26.704Z,19.20
2023-05-25T16:53:56.338Z,19.30
2023-05-25T16:56:31.917Z,19.30
2023-05-25T16:59:00.245Z,19.10
2023-05-25T17:01:28.307Z,19.00
2023-05-25T17:03:56.605Z,19.10
2023-05-25T17:06:24.773Z,19.20
2023-05-25T17:08:52.833Z,19.30
2023-05-25T17:11:26.292Z,19.40
2023-05-25T17:13:54.656Z,19.60
2023-05-25T17:16:23.024Z,19.40
2023-05-25T17:18:51.197Z,19.30
2023-05-25T17:21:19.423Z,19.20
2023-05-25T17:23:49.005Z,19.10
2023-05-25T17:26:17.226Z,19.30
2023-05-25T17:28:46.848Z,19.40
2023-05-25T17:31:15.263Z,19.40
2023-05-25T17:33:43.407Z,19.30
2023-05-25T17:36:11.831Z,19.20
2023-05-25T17:38:41.155Z,19.20
2023-05-25T17:41:09.214Z,19.40
2023-05-25T17:43:37.307Z,19.40
2023-05-25T17:46:07.856Z,19.40
2023-05-25T17:48:36.597Z,19.40
2023-05-25T17:51:05.053Z,19.00
2023-05-25T17:53:33.124Z,19.10
2023-05-25T17:56:01.360Z,18.90
2023-05-25T17:58:29.322Z,18.90
2023-05-25T18:00:57.564Z,18.80
2023-05-25T18:03:27.201Z,18.70
2023-05-25T18:05:55.552Z,18.60
2023-05-25T18:08:23.752Z,18.50
2023-05-25T18:10:52.928Z,18.50
2023-05-25T18:13:21.115Z,18.50
2023-05-25T18:15:49.344Z,18.50
2023-05-25T18:18:20.569Z,18.20
2023-05-25T18:20:50.228Z,18.10
2023-05-25T18:23:18.477Z,17.90
2023-05-25T18:25:46.753Z,17.70
2023-05-25T18:28:15.293Z,17.60
2023-05-25T18:30:43.843Z,17.50
2023-05-25T18:33:11.980Z,17.70
2023-05-25T18:35:40.707Z,17.70
2023-05-25T18:38:10.068Z,17.50
2023-05-25T18:40:38.248Z,17.60
2023-05-25T18:43:07.885Z,17.30
2023-05-25T18:45:40.167Z,17.30
2023-05-25T18:48:08.582Z,17.00
2023-05-25T18:50:37.990Z,16.80
2023-05-25T18:53:07.872Z,16.80
2023-05-25T18:55:37.563Z,16.70
2023-05-25T18:58:06.528Z,16.60
2023-05-25T19:00:35.190Z,16.50
2023-05-25T19:03:03.491Z,16.30
2023-05-25T19:05:31.810Z,16.20
2023-05-25T19:08:01.209Z,16.00
2023-05-25T19:10:29.322Z,15.90
2023-05-25T19:12:59.065Z,15.80
2023-05-25T19:15:29.762Z,15.80
2023-05-25T19:17:58.418Z,15.60
2023-05-25T19:20:28.178Z,15.80
2023-05-25T19:23:00.207Z,15.50
2023-05-25T19:25:29.481Z,15.40
2023-05-25T19:28:00.534Z,15.40
2023-05-25T19:30:29.384Z,15.20
2023-05-25T19:32:57.516Z,15.20
2023-05-25T19:35:25.788Z,15.20
2023-05-25T19:37:54.145Z,15.10
2023-05-25T19:40:22.438Z,15.00
2023-05-25T19:42:50.747Z,14.90
2023-05-25T19:45:20.649Z,14.90
2023-05-25T19:47:49.084Z,14.80
2023-05-25T19:50:23.253Z,14.70
2023-05-25T19:52:51.586Z,14.60
2023-05-25T19:55:19.852Z,14.50
2023-05-25T19:57:50.104Z,14.40
2023-05-25T20:00:26.508Z,14.30
2023-05-25T20:02:55.381Z,14.30
2023-05-25T20:05:23.826Z,14.30
2023-05-25T20:07:52.604Z,14.20
2023-05-25T20:10:21.148Z,14.20
2023-05-25T20:12:49.647Z,14.10
2023-05-25T20:15:19.429Z,14.10
2023-05-25T20:17:47.579Z,14.00
2023-05-25T20:20:16.065Z,14.00
2023-05-25T20:22:44.204Z,13.90
2023-05-25T20:25:12.520Z,13.90
2023-05-25T20:27:40.624Z,13.90
2023-05-25T20:30:09.780Z,13.80
2023-05-25T20:32:39.185Z,13.80
2023-05-25T20:35:07.865Z,13.80
2023-05-25T20:37:36.256Z,13.70
2023-05-25T20:40:06.558Z,13.70
2023-05-25T20:42:34.913Z,13.60
2023-05-25T20:45:03.763Z,13.50
2023-05-25T20:47:31.790Z,13.50
2023-05-25T20:50:01.347Z,13.80
2023-05-25T20:52:29.345Z,13.40
2023-05-25T20:54:57.524Z,13.40
2023-05-25T20:57:25.672Z,13.40
2023-05-25T20:59:54.206Z,13.30
2023-05-25T21:02:22.282Z,13.30
2023-05-25T21:04:50.448Z,13.20
2023-05-25T21:07:20.068Z,13.20
2023-05-25T21:09:48.019Z,13.20
2023-05-25T21:12:16.146Z,13.20
2023-05-25T21:14:44.231Z,13.10
2023-05-25T21:17:12.605Z,13.20
2023-05-25T21:19:41.104Z,13.10
2023-05-25T21:22:09.369Z,13.10
2023-05-25T21:24:39.322Z,13.10
2023-05-25T21:27:07.710Z,13.10
2023-05-25T21:29:36.557Z,13.00
2023-05-25T21:32:04.992Z,13.00
2023-05-25T21:34:33.462Z,13.00
2023-05-25T21:37:01.660Z,13.00
2023-05-25T21:39:30.096Z,13.00
2023-05-25T21:41:59.563Z,12.90
2023-05-25T21:44:27.813Z,13.00
2023-05-25T21:46:56.024Z,12.80
2023-05-25T21:49:25.577Z,12.80
2023-05-25T21:51:53.703Z,12.80
2023-05-25T21:54:22.247Z,12.80
2023-05-25T21:56:50.367Z,12.80
2023-05-25T21:59:20.000Z,12.80
2023-05-25T22:01:49.329Z,12.70
2023-05-25T22:04:17.454Z,12.70
2023-05-25T22:06:45.442Z,12.60
2023-05-25T22:09:15.683Z,12.60
2023-05-25T22:11:43.787Z,12.70
2023-05-25T22:14:12.049Z,12.60
2023-05-25T22:16:41.734Z,12.70
2023-05-25T22:19:09.929Z,12.50
2023-05-25T22:21:38.405Z,12.50
2023-05-25T22:24:06.740Z,12.50
2023-05-25T22:26:35.228Z,12.50
2023-05-25T22:29:03.509Z,12.40
2023-05-25T22:31:31.665Z,12.40
2023-05-25T22:34:01.584Z,12.40
2023-05-25T22:36:29.604Z,12.40
2023-05-25T22:38:57.906Z,12.20
2023-05-25T22:41:26.531Z,12.20
2023-05-25T22:43:54.789Z,12.20
2023-05-25T22:46:23.335Z,12.20
2023-05-25T22:48:51.669Z,12.10
2023-05-25T22:51:21.047Z,12.20
2023-05-25T22:53:49.127Z,12.20
2023-05-25T22:56:17.218Z,12.20
2023-05-25T22:58:45.235Z,12.10
2023-05-25T23:01:13.415Z,12.10
2023-05-25T23:03:41.682Z,12.00
2023-05-25T23:06:10.009Z,11.90
2023-05-25T23:08:39.652Z,12.10
2023-05-25T23:11:07.742Z,11.80
2023-05-25T23:13:36.011Z,11.80
2023-05-25T23:16:05.385Z,11.80
2023-05-25T23:18:33.934Z,11.90
2023-05-25T23:21:02.030Z,11.90
2023-05-25T23:23:30.113Z,11.70
2023-05-25T23:25:59.599Z,11.70
2023-05-25T23:28:28.175Z,11.70
2023-05-25T23:30:56.614Z,11.60
2023-05-25T23:33:24.772Z,11.60
2023-05-25T23:35:52.818Z,11.70
2023-05-25T23:38:21.164Z,11.50
2023-05-25T23:40:49.226Z,11.50
2023-05-25T23:43:19.231Z,11.50
2023-05-25T23:45:47.925Z,11.80
2023-05-25T23:48:16.540Z,11.40
2023-05-25T23:50:44.617Z,11.40
2023-05-25T23:53:12.730Z,11.30
2023-05-25T23:55:40.831Z,11.30
2023-05-25T23:58:09.240Z,11.40
